Orlando, FL (32803)

3:24 AM EDT on September 01, 2015 (GMT -0400)
Lake Como | | Change Station
CLOSE
Current Station
Personal Weather Station
Location: Orlando, FL
Elevation: 154 ft
Nearby Weather Stations

Elev 154 ft 28.54 °N, 81.35 °W | Updated 2 minutes ago

Clear
Clear
75.2 °F
Feels Like 73 °F
N
0.0
Wind Variable Wind from North

Today
High -- | Low -- °F
--% Chance of Precip.
Yesterday
High -- | Low -- °F
Precip. -- in
7:03 AM 7:47 PM
Waning Gibbous, 91% visible
Pressure 30.05 in
Visibility 10.0 miles
Clouds Clear
Heat Index 73 °F
Dew Point 75 °F
Humidity 99%
Rainfall 0.00 in
Snow Depth Not available.
UV 0 out of 12
Pollen 1.60 out of 12
Air Quality Not available.
Flu Activity Not available.
METAR KORL 010653Z AUTO 17004KT 10SM CLR 26/26 A3004 RMK AO2 SLP175 T02560256
Pressure 30.05 in
Visibility 10.0 miles
Clouds Clear
Heat Index 73 °F
Dew Point 75 °F
Humidity 99%
Rainfall 0.00 in
Snow Depth Not available.
UV 0 out of 12
Pollen 1.60 out of 12
Air Quality Not available.
Flu Activity Not available.
METAR KORL 010653Z AUTO 17004KT 10SM CLR 26/26 A3004 RMK AO2 SLP175 T02560256

10-Day Weather Forecast

×

Almanac

Astronomy

Sep. 01, 2015 Rise Set
Actual Time
Civil Twilight
Nautical Twilight
Astronomical Twilight
Moon
Length of Visible Light
Length of Day
Tomorrow will be .
, % of the Moon is Illuminated

Today's Extremes

State Highs State Lows

Community

WunderPhotos

Upload Photos

1,851,488 photos uploaded!

WunderBlogs® & News

Nearby

Air Quality

  Air Quality AQ Index Pollutant
Not available.

Snow Depth

Station Depth Elevation

Earthquake Activity

City Distance Mag. Time & Date
Minimum magnitude displayed is 2.5.

Coastal Water Temperatures

Place Temperature

Stations

Nearby Weather Stations

Station Location Temp. Windchill Dew Point Humidity Wind Precip. Elev Updated Type